Currently 69°F in Lake Elsinore, California, USA
69°F
70°F / 42°F
calm
0.00"
Saturday, December 15, 2018 10:40 AM PST

Lake Elsinore, California Weather Summary
Last 36 Hours

Temperature Winds Hourly Humidity Dewpoint
Time Report Norm Report Norm Max Gusts Precip. Rpt. Norm Rpt. Norm Pressure
1Sat 10:40 AM  69.4°F  60°F  calm  2 mph  2 mph  0.00"  18%  62%  22°F  46°F  30.11"
2Sat 10:03 AM  69.8°F  57°F  1 mph SE  1 mph  2 mph  ----  18%  67%  22°F  46°F  30.12"
Sat 10:00 AM  69.5°F  57°F  calm  1 mph  2 mph  0.00"  17%  67%  21°F  46°F  30.12"
Sat 09:00 AM  62.7°F  53°F  calm  1 mph  2 mph  0.00"  38%  76%  36°F  46°F  30.11"
Sat 08:00 AM  48.9°F  47°F  calm  1 mph  2 mph  0.00"  60%  86%  35°F  43°F  30.10"
3Sat 07:14 AM  42.4°F  43°F  calm  calm  none  ----  68%  87%  32°F  39°F  30.10"
Sat 07:00 AM  42.8°F  43°F  calm  1 mph  3 mph  0.00"  68%  87%  33°F  39°F  30.09"
Sat 06:00 AM  44.6°F  43°F  calm  1 mph  none  0.00"  65%  86%  33°F  39°F  30.09"
Sat 05:00 AM  45.5°F  44°F  calm  1 mph  2 mph  0.00"  63%  86%  33°F  39°F  30.10"
Sat 04:00 AM  46.6°F  44°F  calm  1 mph  none  0.00"  62%  85%  34°F  39°F  30.12"
Sat 03:00 AM  46.8°F  44°F  calm  calm  4 mph  0.00"  61%  84%  33°F  40°F  30.13"
Sat 02:00 AM  48.1°F  45°F  calm  calm  4 mph  0.00"  58%  83%  33°F  40°F  30.14"
Sat 01:00 AM  48.1°F  46°F  calm  calm  none  0.00"  59%  82%  34°F  40°F  30.13"
Sat 12:00 AM  48.7°F  47°F  calm  1 mph  none  0.00"  60%  80%  35°F  40°F  30.13"
Fri 11:00 PM  50.8°F  47°F  calm  1 mph  none  0.00"  55%  79%  35°F  41°F  30.15"
Fri 10:00 PM  51.8°F  48°F  calm  1 mph  none  0.00"  53%  77%  35°F  41°F  30.17"
Fri 09:00 PM  53.2°F  50°F  calm  1 mph  none  0.00"  50%  75%  34°F  42°F  30.17"
Fri 08:00 PM  53.9°F  51°F  calm  1 mph  none  0.00"  52%  72%  36°F  42°F  30.17"
Fri 07:00 PM  55.0°F  53°F  calm  1 mph  none  0.00"  49%  69%  35°F  42°F  30.16"
Fri 06:00 PM  56.6°F  55°F  calm  1 mph  none  0.00"  47%  65%  36°F  43°F  30.15"
Fri 05:00 PM  59.9°F  58°F  calm  1 mph  none  0.00"  39%  60%  34°F  43°F  30.15"
Fri 04:00 PM  64.3°F  63°F  calm  2 mph  none  0.00"  30%  52%  31°F  44°F  30.14"
Fri 03:00 PM  68.5°F  65°F  calm  3 mph  4 mph  0.00"  22%  48%  26°F  45°F  30.14"
Fri 02:00 PM  65.4°F  66°F  calm  2 mph  2 mph  0.00"  25%  48%  27°F  45°F  30.15"
Fri 01:00 PM  63.5°F  65°F  calm  2 mph  2 mph  0.00"  33%  49%  33°F  45°F  30.16"
Fri 12:00 PM  62.4°F  64°F  calm  2 mph  none  0.00"  39%  52%  36°F  46°F  30.18"
Fri 11:00 AM  61.3°F  61°F  calm  2 mph  2 mph  0.00"  41%  57%  36°F  46°F  30.21"
Fri 10:00 AM  55.4°F  58°F  calm  2 mph  1 mph  0.00"  54%  65%  39°F  46°F  30.24"
Fri 09:00 AM  49.3°F  54°F  calm  1 mph  none  0.00"  65%  75%  37°F  46°F  30.24"
Fri 08:00 AM  45.7°F  48°F  calm  1 mph  3 mph  0.00"  68%  84%  35°F  43°F  30.24"
Fri 07:00 AM  44.6°F  43°F  calm  1 mph  3 mph  0.00"  68%  86%  34°F  39°F  30.22"
Fri 06:00 AM  44.3°F  43°F  calm  1 mph  3 mph  0.00"  68%  86%  34°F  39°F  30.21"
Fri 05:00 AM  44.1°F  44°F  calm  1 mph  none  0.00"  68%  85%  34°F  39°F  30.19"
Fri 04:00 AM  43.8°F  44°F  calm  1 mph  2 mph  0.00"  68%  85%  34°F  39°F  30.19"
Fri 03:00 AM  44.5°F  45°F  calm  calm  2 mph  0.00"  66%  84%  33°F  40°F  30.20"
Fri 02:00 AM  45.0°F  45°F  calm  calm  none  0.00"  65%  83%  34°F  40°F  30.22"
Fri 01:00 AM  45.6°F  46°F  calm  calm  none  0.00"  64%  81%  34°F  40°F  30.23"
Fri 12:00 AM  46.8°F  47°F  calm  1 mph  2 mph  0.00"  62%  79%  34°F  40°F  30.25"
Thu 11:00 PM  48.2°F  48°F  calm  1 mph  none  0.00"  60%  79%  34°F  41°F  30.26"

  1. Current weather data. No green row appears if the current weather data is also the high or low for the current day.
  2. High temperature for the current day.
  3. Low temperature for the current day.

The Lake Elsinore, California weather pages are a service of WeatherCurrents. Lake Elsinore is located south of Corona and north of the Temecula Valley, in southwestern Riverside County, California.
Copyright ©Sat Dec 15 10:40:38 PST 2018  WeatherCurrents. All rights reserved. - Submit questions and comments - Privacy Policy

This page automatically refreshes every 10 minutes.